sensor_id;sensor_type;location;lat;lon;timestamp;P1;durP1;ratioP1;P2;durP2;ratioP2
57565;SDS011;63999;43.882;-0.310;2022-10-31T00:00:21;7.80;;;3.42;;
57565;SDS011;63999;43.882;-0.310;2022-10-31T00:02:47;11.07;;;4.05;;
57565;SDS011;63999;43.882;-0.310;2022-10-31T00:05:12;8.40;;;3.70;;
57565;SDS011;63999;43.882;-0.310;2022-10-31T00:07:38;10.30;;;3.80;;
57565;SDS011;63999;43.882;-0.310;2022-10-31T00:10:04;9.23;;;3.75;;
57565;SDS011;63999;43.882;-0.310;2022-10-31T00:12:30;7.05;;;3.53;;
57565;SDS011;63999;43.882;-0.310;2022-10-31T00:14:56;6.63;;;3.55;;
57565;SDS011;63999;43.882;-0.310;2022-10-31T00:17:22;9.50;;;3.85;;
57565;SDS011;63999;43.882;-0.310;2022-10-31T00:19:47;8.98;;;4.38;;
57565;SDS011;63999;43.882;-0.310;2022-10-31T00:22:13;7.10;;;3.70;;
57565;SDS011;63999;43.882;-0.310;2022-10-31T00:24:39;7.85;;;3.75;;
57565;SDS011;63999;43.882;-0.310;2022-10-31T00:27:04;8.40;;;4.13;;
57565;SDS011;63999;43.882;-0.310;2022-10-31T00:29:30;9.90;;;3.85;;
57565;SDS011;63999;43.882;-0.310;2022-10-31T00:31:56;10.35;;;4.00;;
57565;SDS011;63999;43.882;-0.310;2022-10-31T00:34:21;10.82;;;3.65;;
57565;SDS011;63999;43.882;-0.310;2022-10-31T00:36:47;9.52;;;3.78;;
57565;SDS011;63999;43.882;-0.310;2022-10-31T00:39:13;6.45;;;3.95;;
57565;SDS011;63999;43.882;-0.310;2022-10-31T00:41:38;6.85;;;3.40;;
57565;SDS011;63999;43.882;-0.310;2022-10-31T00:44:04;8.07;;;3.70;;
57565;SDS011;63999;43.882;-0.310;2022-10-31T00:46:30;7.85;;;3.92;;
57565;SDS011;63999;43.882;-0.310;2022-10-31T00:48:56;6.65;;;3.92;;
57565;SDS011;63999;43.882;-0.310;2022-10-31T00:51:21;7.65;;;3.53;;
57565;SDS011;63999;43.882;-0.310;2022-10-31T00:53:47;9.63;;;3.63;;
57565;SDS011;63999;43.882;-0.310;2022-10-31T00:56:13;6.47;;;3.40;;
57565;SDS011;63999;43.882;-0.310;2022-10-31T00:58:39;7.68;;;4.10;;
57565;SDS011;63999;43.882;-0.310;2022-10-31T01:01:05;7.53;;;3.95;;
57565;SDS011;63999;43.882;-0.310;2022-10-31T01:03:31;8.77;;;3.78;;
57565;SDS011;63999;43.882;-0.310;2022-10-31T01:05:58;8.63;;;3.85;;
57565;SDS011;63999;43.882;-0.310;2022-10-31T01:08:26;7.38;;;3.70;;
57565;SDS011;63999;43.882;-0.310;2022-10-31T01:13:33;12.65;;;4.00;;
57565;SDS011;63999;43.882;-0.310;2022-10-31T01:16:00;8.73;;;4.22;;
57565;SDS011;63999;43.882;-0.310;2022-10-31T01:18:27;6.28;;;3.60;;
57565;SDS011;63999;43.882;-0.310;2022-10-31T01:20:57;9.85;;;3.50;;
57565;SDS011;63999;43.882;-0.310;2022-10-31T01:23:34;6.82;;;3.65;;
57565;SDS011;63999;43.882;-0.310;2022-10-31T01:26:14;10.10;;;3.53;;
57565;SDS011;63999;43.882;-0.310;2022-10-31T01:28:59;6.78;;;3.47;;
57565;SDS011;63999;43.882;-0.310;2022-10-31T01:31:28;8.45;;;4.00;;
57565;SDS011;63999;43.882;-0.310;2022-10-31T01:33:55;7.93;;;3.53;;
57565;SDS011;63999;43.882;-0.310;2022-10-31T01:36:23;11.95;;;3.67;;
57565;SDS011;63999;43.882;-0.310;2022-10-31T01:39:00;7.88;;;3.63;;
57565;SDS011;63999;43.882;-0.310;2022-10-31T01:41:34;6.32;;;3.33;;
57565;SDS011;63999;43.882;-0.310;2022-10-31T01:44:02;8.20;;;3.95;;
57565;SDS011;63999;43.882;-0.310;2022-10-31T01:46:52;7.88;;;3.78;;
57565;SDS011;63999;43.882;-0.310;2022-10-31T01:49:23;7.88;;;3.65;;
57565;SDS011;63999;43.882;-0.310;2022-10-31T01:52:40;6.93;;;3.58;;
57565;SDS011;63999;43.882;-0.310;2022-10-31T01:55:01;6.90;;;3.55;;
57565;SDS011;63999;43.882;-0.310;2022-10-31T01:57:31;8.48;;;3.92;;
57565;SDS011;63999;43.882;-0.310;2022-10-31T01:59:59;7.72;;;3.50;;
57565;SDS011;63999;43.882;-0.310;2022-10-31T02:02:28;9.45;;;3.47;;
57565;SDS011;63999;43.882;-0.310;2022-10-31T02:04:56;6.13;;;3.60;;
57565;SDS011;63999;43.882;-0.310;2022-10-31T02:07:26;6.70;;;3.45;;
57565;SDS011;63999;43.882;-0.310;2022-10-31T02:10:02;5.38;;;2.95;;
57565;SDS011;63999;43.882;-0.310;2022-10-31T02:12:28;8.57;;;3.28;;
57565;SDS011;63999;43.882;-0.310;2022-10-31T02:14:56;7.50;;;3.80;;
57565;SDS011;63999;43.882;-0.310;2022-10-31T02:17:23;6.85;;;3.92;;
57565;SDS011;63999;43.882;-0.310;2022-10-31T02:19:54;5.32;;;3.70;;
57565;SDS011;63999;43.882;-0.310;2022-10-31T02:36:57;7.38;;;3.00;;
57565;SDS011;63999;43.882;-0.310;2022-10-31T02:47:03;7.80;;;3.25;;
57565;SDS011;63999;43.882;-0.310;2022-10-31T02:52:19;6.63;;;3.33;;
57565;SDS011;63999;43.882;-0.310;2022-10-31T02:54:46;9.13;;;3.20;;
57565;SDS011;63999;43.882;-0.310;2022-10-31T02:57:13;10.77;;;3.67;;
57565;SDS011;63999;43.882;-0.310;2022-10-31T02:59:44;5.93;;;3.47;;
57565;SDS011;63999;43.882;-0.310;2022-10-31T03:10:43;7.78;;;4.28;;
57565;SDS011;63999;43.882;-0.310;2022-10-31T03:13:46;7.25;;;3.55;;
57565;SDS011;63999;43.882;-0.310;2022-10-31T03:16:20;9.20;;;3.58;;
57565;SDS011;63999;43.882;-0.310;2022-10-31T03:21:36;8.57;;;4.18;;
57565;SDS011;63999;43.882;-0.310;2022-10-31T03:24:08;5.97;;;3.60;;
57565;SDS011;63999;43.882;-0.310;2022-10-31T03:26:36;9.88;;;4.45;;
57565;SDS011;63999;43.882;-0.310;2022-10-31T03:29:06;7.07;;;3.70;;
57565;SDS011;63999;43.882;-0.310;2022-10-31T03:31:36;6.40;;;3.85;;
57565;SDS011;63999;43.882;-0.310;2022-10-31T03:34:09;5.22;;;3.30;;
57565;SDS011;63999;43.882;-0.310;2022-10-31T03:36:38;6.30;;;3.60;;
57565;SDS011;63999;43.882;-0.310;2022-10-31T03:39:07;9.13;;;3.75;;
57565;SDS011;63999;43.882;-0.310;2022-10-31T03:41:38;8.13;;;3.60;;
57565;SDS011;63999;43.882;-0.310;2022-10-31T03:44:13;7.57;;;3.67;;
57565;SDS011;63999;43.882;-0.310;2022-10-31T03:46:42;6.43;;;3.67;;
57565;SDS011;63999;43.882;-0.310;2022-10-31T03:49:09;7.32;;;4.18;;
57565;SDS011;63999;43.882;-0.310;2022-10-31T03:59:37;4.18;;;2.53;;
57565;SDS011;63999;43.882;-0.310;2022-10-31T04:02:13;5.60;;;2.88;;
57565;SDS011;63999;43.882;-0.310;2022-10-31T04:04:42;6.25;;;3.08;;
57565;SDS011;63999;43.882;-0.310;2022-10-31T04:07:09;5.60;;;2.92;;
57565;SDS011;63999;43.882;-0.310;2022-10-31T04:09:37;4.57;;;2.63;;
57565;SDS011;63999;43.882;-0.310;2022-10-31T04:12:07;9.77;;;2.97;;
57565;SDS011;63999;43.882;-0.310;2022-10-31T04:14:36;6.50;;;3.53;;
57565;SDS011;63999;43.882;-0.310;2022-10-31T04:17:05;7.63;;;3.40;;
57565;SDS011;63999;43.882;-0.310;2022-10-31T04:19:35;7.03;;;3.97;;
57565;SDS011;63999;43.882;-0.310;2022-10-31T04:22:01;5.93;;;3.45;;
57565;SDS011;63999;43.882;-0.310;2022-10-31T04:24:27;5.15;;;3.63;;
57565;SDS011;63999;43.882;-0.310;2022-10-31T04:26:52;8.20;;;3.50;;
57565;SDS011;63999;43.882;-0.310;2022-10-31T04:29:18;7.53;;;3.88;;
57565;SDS011;63999;43.882;-0.310;2022-10-31T04:31:44;8.65;;;3.90;;
57565;SDS011;63999;43.882;-0.310;2022-10-31T04:34:09;9.23;;;3.65;;
57565;SDS011;63999;43.882;-0.310;2022-10-31T04:36:35;8.15;;;4.45;;
57565;SDS011;63999;43.882;-0.310;2022-10-31T04:39:01;6.45;;;3.97;;
57565;SDS011;63999;43.882;-0.310;2022-10-31T04:41:26;8.52;;;4.55;;
57565;SDS011;63999;43.882;-0.310;2022-10-31T04:43:52;8.45;;;4.28;;
57565;SDS011;63999;43.882;-0.310;2022-10-31T04:46:18;7.75;;;4.20;;
57565;SDS011;63999;43.882;-0.310;2022-10-31T04:48:44;5.65;;;3.78;;
57565;SDS011;63999;43.882;-0.310;2022-10-31T04:51:09;9.15;;;4.93;;
57565;SDS011;63999;43.882;-0.310;2022-10-31T04:53:35;9.82;;;4.80;;
57565;SDS011;63999;43.882;-0.310;2022-10-31T04:56:01;11.10;;;5.25;;
57565;SDS011;63999;43.882;-0.310;2022-10-31T04:58:27;10.77;;;4.93;;
57565;SDS011;63999;43.882;-0.310;2022-10-31T05:00:53;10.95;;;5.28;;
57565;SDS011;63999;43.882;-0.310;2022-10-31T05:03:19;13.32;;;5.40;;
57565;SDS011;63999;43.882;-0.310;2022-10-31T05:05:45;11.93;;;6.25;;
57565;SDS011;63999;43.882;-0.310;2022-10-31T05:08:11;11.80;;;4.70;;
57565;SDS011;63999;43.882;-0.310;2022-10-31T05:10:38;13.32;;;5.38;;
57565;SDS011;63999;43.882;-0.310;2022-10-31T05:13:03;13.80;;;5.22;;
57565;SDS011;63999;43.882;-0.310;2022-10-31T05:15:30;12.98;;;5.70;;
57565;SDS011;63999;43.882;-0.310;2022-10-31T05:17:56;10.65;;;5.40;;
57565;SDS011;63999;43.882;-0.310;2022-10-31T05:20:23;12.60;;;5.75;;
57565;SDS011;63999;43.882;-0.310;2022-10-31T05:22:52;13.02;;;5.65;;
57565;SDS011;63999;43.882;-0.310;2022-10-31T05:25:19;13.90;;;5.65;;
57565;SDS011;63999;43.882;-0.310;2022-10-31T05:27:47;9.40;;;5.80;;
57565;SDS011;63999;43.882;-0.310;2022-10-31T05:30:14;9.50;;;5.38;;
57565;SDS011;63999;43.882;-0.310;2022-10-31T05:32:46;10.95;;;5.60;;
57565;SDS011;63999;43.882;-0.310;2022-10-31T05:35:15;11.38;;;5.22;;
57565;SDS011;63999;43.882;-0.310;2022-10-31T05:37:42;10.48;;;5.07;;
57565;SDS011;63999;43.882;-0.310;2022-10-31T05:40:09;12.48;;;5.47;;
57565;SDS011;63999;43.882;-0.310;2022-10-31T05:42:37;10.95;;;5.43;;
57565;SDS011;63999;43.882;-0.310;2022-10-31T05:45:04;12.07;;;5.13;;
57565;SDS011;63999;43.882;-0.310;2022-10-31T05:47:31;10.82;;;5.22;;
57565;SDS011;63999;43.882;-0.310;2022-10-31T05:49:57;9.05;;;5.03;;
57565;SDS011;63999;43.882;-0.310;2022-10-31T05:52:23;11.40;;;4.93;;
57565;SDS011;63999;43.882;-0.310;2022-10-31T05:54:49;13.43;;;5.18;;
57565;SDS011;63999;43.882;-0.310;2022-10-31T05:57:14;11.48;;;4.95;;
57565;SDS011;63999;43.882;-0.310;2022-10-31T05:59:40;8.57;;;4.88;;
57565;SDS011;63999;43.882;-0.310;2022-10-31T06:02:06;8.77;;;4.82;;
57565;SDS011;63999;43.882;-0.310;2022-10-31T06:04:31;11.45;;;5.55;;
57565;SDS011;63999;43.882;-0.310;2022-10-31T06:06:57;10.50;;;4.85;;
57565;SDS011;63999;43.882;-0.310;2022-10-31T06:09:23;13.13;;;5.90;;
57565;SDS011;63999;43.882;-0.310;2022-10-31T06:11:48;10.10;;;5.25;;
57565;SDS011;63999;43.882;-0.310;2022-10-31T06:14:14;10.07;;;4.82;;
57565;SDS011;63999;43.882;-0.310;2022-10-31T06:16:40;11.63;;;5.25;;
57565;SDS011;63999;43.882;-0.310;2022-10-31T06:19:06;12.90;;;5.82;;
57565;SDS011;63999;43.882;-0.310;2022-10-31T06:21:32;11.70;;;5.07;;
57565;SDS011;63999;43.882;-0.310;2022-10-31T06:23:58;10.95;;;5.05;;
57565;SDS011;63999;43.882;-0.310;2022-10-31T06:26:24;11.48;;;5.60;;
57565;SDS011;63999;43.882;-0.310;2022-10-31T06:28:52;13.60;;;5.28;;
57565;SDS011;63999;43.882;-0.310;2022-10-31T06:31:18;14.82;;;4.93;;
57565;SDS011;63999;43.882;-0.310;2022-10-31T06:33:43;9.75;;;5.28;;
57565;SDS011;63999;43.882;-0.310;2022-10-31T06:36:09;11.27;;;5.30;;
57565;SDS011;63999;43.882;-0.310;2022-10-31T06:38:35;9.60;;;5.18;;
57565;SDS011;63999;43.882;-0.310;2022-10-31T06:41:02;11.75;;;5.18;;
57565;SDS011;63999;43.882;-0.310;2022-10-31T06:43:30;10.70;;;5.40;;
57565;SDS011;63999;43.882;-0.310;2022-10-31T06:45:56;13.77;;;5.35;;
57565;SDS011;63999;43.882;-0.310;2022-10-31T06:48:22;13.38;;;5.70;;
57565;SDS011;63999;43.882;-0.310;2022-10-31T06:50:48;12.48;;;5.20;;
57565;SDS011;63999;43.882;-0.310;2022-10-31T06:53:19;9.73;;;4.63;;
57565;SDS011;63999;43.882;-0.310;2022-10-31T06:56:21;11.25;;;5.90;;
57565;SDS011;63999;43.882;-0.310;2022-10-31T06:58:52;11.38;;;5.63;;
57565;SDS011;63999;43.882;-0.310;2022-10-31T07:01:22;9.55;;;5.38;;
57565;SDS011;63999;43.882;-0.310;2022-10-31T07:03:48;12.73;;;5.18;;
57565;SDS011;63999;43.882;-0.310;2022-10-31T07:06:14;9.48;;;5.20;;
57565;SDS011;63999;43.882;-0.310;2022-10-31T07:08:40;9.32;;;4.90;;
57565;SDS011;63999;43.882;-0.310;2022-10-31T07:11:06;12.75;;;4.85;;
57565;SDS011;63999;43.882;-0.310;2022-10-31T07:13:31;9.52;;;4.55;;
57565;SDS011;63999;43.882;-0.310;2022-10-31T07:16:02;11.35;;;5.63;;
57565;SDS011;63999;43.882;-0.310;2022-10-31T07:18:29;11.27;;;5.35;;
57565;SDS011;63999;43.882;-0.310;2022-10-31T07:20:54;19.30;;;6.18;;
57565;SDS011;63999;43.882;-0.310;2022-10-31T07:23:21;9.07;;;4.85;;
57565;SDS011;63999;43.882;-0.310;2022-10-31T07:25:47;13.63;;;5.63;;
57565;SDS011;63999;43.882;-0.310;2022-10-31T07:28:13;12.07;;;5.40;;
57565;SDS011;63999;43.882;-0.310;2022-10-31T07:30:38;7.95;;;4.88;;
57565;SDS011;63999;43.882;-0.310;2022-10-31T07:33:05;13.07;;;5.57;;
57565;SDS011;63999;43.882;-0.310;2022-10-31T07:35:31;9.00;;;5.22;;
57565;SDS011;63999;43.882;-0.310;2022-10-31T07:38:09;12.52;;;5.20;;
57565;SDS011;63999;43.882;-0.310;2022-10-31T07:40:36;9.05;;;5.47;;
57565;SDS011;63999;43.882;-0.310;2022-10-31T07:43:03;14.90;;;5.57;;
57565;SDS011;63999;43.882;-0.310;2022-10-31T07:45:30;12.18;;;5.07;;
57565;SDS011;63999;43.882;-0.310;2022-10-31T07:47:55;14.65;;;5.10;;
57565;SDS011;63999;43.882;-0.310;2022-10-31T07:50:22;11.00;;;4.90;;
57565;SDS011;63999;43.882;-0.310;2022-10-31T07:52:59;11.18;;;4.93;;
57565;SDS011;63999;43.882;-0.310;2022-10-31T07:55:25;11.65;;;5.30;;
57565;SDS011;63999;43.882;-0.310;2022-10-31T07:57:57;11.38;;;4.70;;
57565;SDS011;63999;43.882;-0.310;2022-10-31T08:00:23;10.48;;;5.63;;
57565;SDS011;63999;43.882;-0.310;2022-10-31T08:02:56;14.82;;;5.70;;
57565;SDS011;63999;43.882;-0.310;2022-10-31T08:05:28;10.48;;;5.68;;
57565;SDS011;63999;43.882;-0.310;2022-10-31T08:07:54;11.20;;;5.57;;
57565;SDS011;63999;43.882;-0.310;2022-10-31T08:10:20;11.60;;;4.78;;
57565;SDS011;63999;43.882;-0.310;2022-10-31T08:12:46;10.93;;;5.30;;
57565;SDS011;63999;43.882;-0.310;2022-10-31T08:15:19;13.27;;;5.40;;
57565;SDS011;63999;43.882;-0.310;2022-10-31T08:17:45;9.18;;;5.00;;
57565;SDS011;63999;43.882;-0.310;2022-10-31T08:20:10;12.80;;;5.10;;
57565;SDS011;63999;43.882;-0.310;2022-10-31T08:22:36;10.95;;;5.30;;
57565;SDS011;63999;43.882;-0.310;2022-10-31T08:25:02;15.50;;;5.70;;
57565;SDS011;63999;43.882;-0.310;2022-10-31T08:27:28;13.07;;;5.03;;
57565;SDS011;63999;43.882;-0.310;2022-10-31T08:29:54;15.75;;;5.95;;
57565;SDS011;63999;43.882;-0.310;2022-10-31T08:32:19;11.82;;;5.22;;
57565;SDS011;63999;43.882;-0.310;2022-10-31T08:34:45;11.40;;;5.47;;
57565;SDS011;63999;43.882;-0.310;2022-10-31T08:37:11;10.73;;;5.22;;
57565;SDS011;63999;43.882;-0.310;2022-10-31T08:39:36;10.43;;;4.88;;
57565;SDS011;63999;43.882;-0.310;2022-10-31T08:42:02;10.07;;;4.88;;
57565;SDS011;63999;43.882;-0.310;2022-10-31T08:44:28;12.45;;;5.80;;
57565;SDS011;63999;43.882;-0.310;2022-10-31T08:46:53;10.45;;;4.47;;
57565;SDS011;63999;43.882;-0.310;2022-10-31T08:49:19;8.75;;;4.65;;
57565;SDS011;63999;43.882;-0.310;2022-10-31T08:51:47;7.15;;;4.97;;
57565;SDS011;63999;43.882;-0.310;2022-10-31T08:54:13;15.90;;;5.60;;
57565;SDS011;63999;43.882;-0.310;2022-10-31T08:56:39;10.63;;;4.40;;
57565;SDS011;63999;43.882;-0.310;2022-10-31T08:59:04;12.05;;;5.72;;
57565;SDS011;63999;43.882;-0.310;2022-10-31T09:01:30;10.57;;;4.60;;
57565;SDS011;63999;43.882;-0.310;2022-10-31T09:03:56;12.85;;;5.40;;
57565;SDS011;63999;43.882;-0.310;2022-10-31T09:06:21;7.82;;;4.57;;
57565;SDS011;63999;43.882;-0.310;2022-10-31T09:08:47;15.15;;;5.15;;
57565;SDS011;63999;43.882;-0.310;2022-10-31T09:11:13;7.60;;;4.45;;
57565;SDS011;63999;43.882;-0.310;2022-10-31T09:13:39;12.93;;;5.20;;
57565;SDS011;63999;43.882;-0.310;2022-10-31T09:16:05;10.00;;;4.78;;
57565;SDS011;63999;43.882;-0.310;2022-10-31T09:18:31;13.40;;;5.22;;
57565;SDS011;63999;43.882;-0.310;2022-10-31T09:20:58;13.65;;;5.15;;
57565;SDS011;63999;43.882;-0.310;2022-10-31T09:23:25;14.23;;;5.38;;
57565;SDS011;63999;43.882;-0.310;2022-10-31T09:25:52;12.13;;;5.45;;
57565;SDS011;63999;43.882;-0.310;2022-10-31T09:28:19;10.45;;;5.07;;
57565;SDS011;63999;43.882;-0.310;2022-10-31T09:30:46;9.35;;;5.53;;
57565;SDS011;63999;43.882;-0.310;2022-10-31T09:33:14;10.30;;;5.07;;
57565;SDS011;63999;43.882;-0.310;2022-10-31T09:35:40;15.55;;;5.80;;
57565;SDS011;63999;43.882;-0.310;2022-10-31T09:38:09;16.27;;;5.43;;
57565;SDS011;63999;43.882;-0.310;2022-10-31T09:40:43;13.68;;;5.13;;
57565;SDS011;63999;43.882;-0.310;2022-10-31T09:46:45;8.43;;;4.07;;
57565;SDS011;63999;43.882;-0.310;2022-10-31T09:52:16;10.75;;;4.93;;
57565;SDS011;63999;43.882;-0.310;2022-10-31T09:54:52;14.18;;;5.03;;
57565;SDS011;63999;43.882;-0.310;2022-10-31T09:57:30;11.32;;;5.18;;
57565;SDS011;63999;43.882;-0.310;2022-10-31T10:00:00;11.55;;;4.65;;
57565;SDS011;63999;43.882;-0.310;2022-10-31T10:02:37;14.43;;;4.88;;
57565;SDS011;63999;43.882;-0.310;2022-10-31T10:22:26;13.77;;;4.70;;
57565;SDS011;63999;43.882;-0.310;2022-10-31T10:30:23;10.57;;;4.15;;
57565;SDS011;63999;43.882;-0.310;2022-10-31T10:33:02;10.05;;;3.85;;
57565;SDS011;63999;43.882;-0.310;2022-10-31T10:35:34;10.07;;;4.43;;
57565;SDS011;63999;43.882;-0.310;2022-10-31T10:40:42;16.02;;;4.70;;
57565;SDS011;63999;43.882;-0.310;2022-10-31T10:43:23;9.60;;;4.07;;
57565;SDS011;63999;43.882;-0.310;2022-10-31T10:46:12;10.40;;;4.38;;
57565;SDS011;63999;43.882;-0.310;2022-10-31T10:49:08;8.00;;;3.90;;
57565;SDS011;63999;43.882;-0.310;2022-10-31T10:57:31;8.57;;;3.92;;
57565;SDS011;63999;43.882;-0.310;2022-10-31T11:00:18;11.43;;;4.35;;
57565;SDS011;63999;43.882;-0.310;2022-10-31T11:02:46;7.82;;;3.83;;
57565;SDS011;63999;43.882;-0.310;2022-10-31T11:08:06;8.30;;;4.03;;
57565;SDS011;63999;43.882;-0.310;2022-10-31T11:10:34;10.75;;;4.15;;
57565;SDS011;63999;43.882;-0.310;2022-10-31T11:13:03;13.38;;;4.10;;
57565;SDS011;63999;43.882;-0.310;2022-10-31T11:18:32;7.10;;;3.58;;
57565;SDS011;63999;43.882;-0.310;2022-10-31T11:21:03;8.30;;;4.07;;
57565;SDS011;63999;43.882;-0.310;2022-10-31T11:23:30;11.43;;;4.30;;
57565;SDS011;63999;43.882;-0.310;2022-10-31T11:26:02;7.90;;;4.35;;
57565;SDS011;63999;43.882;-0.310;2022-10-31T11:28:32;12.38;;;4.30;;
57565;SDS011;63999;43.882;-0.310;2022-10-31T11:31:07;10.27;;;4.77;;
57565;SDS011;63999;43.882;-0.310;2022-10-31T11:33:45;13.65;;;4.70;;
57565;SDS011;63999;43.882;-0.310;2022-10-31T11:36:34;9.85;;;4.15;;
57565;SDS011;63999;43.882;-0.310;2022-10-31T11:39:04;11.43;;;4.45;;
57565;SDS011;63999;43.882;-0.310;2022-10-31T11:41:40;9.98;;;4.38;;
57565;SDS011;63999;43.882;-0.310;2022-10-31T11:44:11;14.15;;;4.95;;
57565;SDS011;63999;43.882;-0.310;2022-10-31T11:46:52;18.48;;;4.70;;
57565;SDS011;63999;43.882;-0.310;2022-10-31T11:49:30;10.75;;;4.45;;
57565;SDS011;63999;43.882;-0.310;2022-10-31T11:52:04;8.32;;;4.32;;
57565;SDS011;63999;43.882;-0.310;2022-10-31T11:54:42;10.20;;;4.68;;
57565;SDS011;63999;43.882;-0.310;2022-10-31T11:57:33;11.10;;;4.57;;
57565;SDS011;63999;43.882;-0.310;2022-10-31T12:00:23;10.90;;;3.83;;
57565;SDS011;63999;43.882;-0.310;2022-10-31T12:02:50;8.50;;;3.60;;
57565;SDS011;63999;43.882;-0.310;2022-10-31T12:07:45;9.98;;;4.38;;
57565;SDS011;63999;43.882;-0.310;2022-10-31T12:10:12;7.38;;;3.90;;
57565;SDS011;63999;43.882;-0.310;2022-10-31T12:12:48;7.32;;;3.80;;
57565;SDS011;63999;43.882;-0.310;2022-10-31T12:15:41;8.30;;;3.63;;
57565;SDS011;63999;43.882;-0.310;2022-10-31T12:21:14;8.13;;;3.78;;
57565;SDS011;63999;43.882;-0.310;2022-10-31T12:24:08;7.50;;;3.88;;
57565;SDS011;63999;43.882;-0.310;2022-10-31T12:27:03;10.20;;;4.15;;
57565;SDS011;63999;43.882;-0.310;2022-10-31T12:32:49;9.07;;;4.45;;
57565;SDS011;63999;43.882;-0.310;2022-10-31T12:41:31;7.45;;;3.55;;
57565;SDS011;63999;43.882;-0.310;2022-10-31T12:49:54;6.20;;;3.15;;
57565;SDS011;63999;43.882;-0.310;2022-10-31T12:58:10;12.20;;;4.25;;
57565;SDS011;63999;43.882;-0.310;2022-10-31T13:01:04;13.27;;;4.70;;
57565;SDS011;63999;43.882;-0.310;2022-10-31T13:04:02;10.13;;;4.35;;
57565;SDS011;63999;43.882;-0.310;2022-10-31T13:06:51;13.88;;;4.53;;
57565;SDS011;63999;43.882;-0.310;2022-10-31T13:09:25;8.38;;;4.13;;
57565;SDS011;63999;43.882;-0.310;2022-10-31T13:12:02;14.20;;;4.55;;
57565;SDS011;63999;43.882;-0.310;2022-10-31T13:14:34;7.93;;;4.03;;
57565;SDS011;63999;43.882;-0.310;2022-10-31T13:17:27;9.63;;;4.57;;
57565;SDS011;63999;43.882;-0.310;2022-10-31T13:20:26;9.40;;;3.85;;
57565;SDS011;63999;43.882;-0.310;2022-10-31T13:22:51;9.48;;;4.20;;
57565;SDS011;63999;43.882;-0.310;2022-10-31T13:25:28;11.82;;;4.63;;
57565;SDS011;63999;43.882;-0.310;2022-10-31T13:28:02;10.70;;;4.40;;
57565;SDS011;63999;43.882;-0.310;2022-10-31T13:30:48;8.20;;;4.43;;
57565;SDS011;63999;43.882;-0.310;2022-10-31T13:39:01;6.15;;;3.42;;
57565;SDS011;63999;43.882;-0.310;2022-10-31T13:44:29;10.13;;;3.72;;
57565;SDS011;63999;43.882;-0.310;2022-10-31T13:47:18;8.60;;;3.50;;
57565;SDS011;63999;43.882;-0.310;2022-10-31T13:58:27;9.32;;;3.88;;
57565;SDS011;63999;43.882;-0.310;2022-10-31T14:03:38;9.05;;;4.60;;
57565;SDS011;63999;43.882;-0.310;2022-10-31T14:06:08;12.60;;;4.05;;
57565;SDS011;63999;43.882;-0.310;2022-10-31T14:08:38;8.93;;;4.10;;
57565;SDS011;63999;43.882;-0.310;2022-10-31T14:11:22;13.80;;;4.55;;
57565;SDS011;63999;43.882;-0.310;2022-10-31T14:13:52;12.85;;;4.47;;
57565;SDS011;63999;43.882;-0.310;2022-10-31T14:16:28;10.48;;;4.32;;
57565;SDS011;63999;43.882;-0.310;2022-10-31T14:21:55;11.32;;;4.20;;
57565;SDS011;63999;43.882;-0.310;2022-10-31T14:29:26;8.95;;;4.05;;
57565;SDS011;63999;43.882;-0.310;2022-10-31T14:32:04;11.68;;;3.88;;
57565;SDS011;63999;43.882;-0.310;2022-10-31T14:34:42;11.75;;;4.30;;
57565;SDS011;63999;43.882;-0.310;2022-10-31T14:37:47;8.68;;;4.32;;
57565;SDS011;63999;43.882;-0.310;2022-10-31T14:45:56;9.60;;;3.80;;
57565;SDS011;63999;43.882;-0.310;2022-10-31T14:51:46;6.63;;;3.30;;
57565;SDS011;63999;43.882;-0.310;2022-10-31T14:54:13;7.85;;;2.88;;
57565;SDS011;63999;43.882;-0.310;2022-10-31T14:56:46;7.18;;;3.30;;
57565;SDS011;63999;43.882;-0.310;2022-10-31T14:59:15;11.55;;;3.40;;
57565;SDS011;63999;43.882;-0.310;2022-10-31T15:01:57;6.20;;;3.25;;
57565;SDS011;63999;43.882;-0.310;2022-10-31T15:04:27;6.05;;;3.03;;
57565;SDS011;63999;43.882;-0.310;2022-10-31T15:07:06;7.10;;;2.95;;
57565;SDS011;63999;43.882;-0.310;2022-10-31T15:09:41;6.50;;;2.90;;
57565;SDS011;63999;43.882;-0.310;2022-10-31T15:17:17;7.35;;;2.55;;
57565;SDS011;63999;43.882;-0.310;2022-10-31T15:19:43;6.28;;;2.78;;
57565;SDS011;63999;43.882;-0.310;2022-10-31T15:22:14;7.57;;;2.58;;
57565;SDS011;63999;43.882;-0.310;2022-10-31T15:24:42;8.25;;;2.80;;
57565;SDS011;63999;43.882;-0.310;2022-10-31T15:27:13;7.25;;;2.80;;
57565;SDS011;63999;43.882;-0.310;2022-10-31T15:29:47;6.50;;;2.67;;
57565;SDS011;63999;43.882;-0.310;2022-10-31T15:32:19;6.32;;;2.70;;
57565;SDS011;63999;43.882;-0.310;2022-10-31T15:34:48;11.10;;;2.88;;
57565;SDS011;63999;43.882;-0.310;2022-10-31T15:37:15;6.72;;;2.90;;
57565;SDS011;63999;43.882;-0.310;2022-10-31T15:39:43;4.63;;;2.53;;
57565;SDS011;63999;43.882;-0.310;2022-10-31T15:42:18;7.43;;;2.78;;
57565;SDS011;63999;43.882;-0.310;2022-10-31T15:47:45;6.63;;;2.80;;
57565;SDS011;63999;43.882;-0.310;2022-10-31T15:50:28;4.85;;;2.50;;
57565;SDS011;63999;43.882;-0.310;2022-10-31T15:53:12;4.72;;;2.50;;
57565;SDS011;63999;43.882;-0.310;2022-10-31T15:56:01;7.35;;;2.55;;
57565;SDS011;63999;43.882;-0.310;2022-10-31T15:58:39;7.97;;;2.60;;
57565;SDS011;63999;43.882;-0.310;2022-10-31T16:01:25;5.80;;;2.38;;
57565;SDS011;63999;43.882;-0.310;2022-10-31T16:04:00;8.45;;;2.70;;
57565;SDS011;63999;43.882;-0.310;2022-10-31T16:06:29;7.65;;;2.55;;
57565;SDS011;63999;43.882;-0.310;2022-10-31T16:08:57;6.57;;;2.58;;
57565;SDS011;63999;43.882;-0.310;2022-10-31T16:11:35;6.95;;;2.83;;
57565;SDS011;63999;43.882;-0.310;2022-10-31T16:16:41;6.15;;;2.90;;
57565;SDS011;63999;43.882;-0.310;2022-10-31T16:19:15;5.32;;;2.83;;
57565;SDS011;63999;43.882;-0.310;2022-10-31T16:21:53;7.05;;;2.50;;
57565;SDS011;63999;43.882;-0.310;2022-10-31T16:24:27;8.52;;;2.60;;
57565;SDS011;63999;43.882;-0.310;2022-10-31T16:27:05;8.95;;;2.60;;
57565;SDS011;63999;43.882;-0.310;2022-10-31T16:29:33;7.00;;;2.55;;
57565;SDS011;63999;43.882;-0.310;2022-10-31T16:31:59;7.00;;;2.47;;
57565;SDS011;63999;43.882;-0.310;2022-10-31T16:34:25;5.80;;;2.58;;
57565;SDS011;63999;43.882;-0.310;2022-10-31T16:36:51;5.07;;;2.47;;
57565;SDS011;63999;43.882;-0.310;2022-10-31T16:39:17;7.63;;;2.60;;
57565;SDS011;63999;43.882;-0.310;2022-10-31T16:41:44;6.63;;;2.72;;
57565;SDS011;63999;43.882;-0.310;2022-10-31T16:44:17;8.25;;;2.72;;
57565;SDS011;63999;43.882;-0.310;2022-10-31T16:47:07;6.90;;;2.30;;
57565;SDS011;63999;43.882;-0.310;2022-10-31T16:49:34;8.93;;;2.58;;
57565;SDS011;63999;43.882;-0.310;2022-10-31T16:51:59;6.85;;;2.70;;
57565;SDS011;63999;43.882;-0.310;2022-10-31T16:54:25;7.25;;;2.75;;
57565;SDS011;63999;43.882;-0.310;2022-10-31T16:56:51;6.53;;;2.90;;
57565;SDS011;63999;43.882;-0.310;2022-10-31T16:59:16;8.52;;;2.90;;
57565;SDS011;63999;43.882;-0.310;2022-10-31T17:01:42;7.13;;;2.63;;
57565;SDS011;63999;43.882;-0.310;2022-10-31T17:04:12;8.90;;;2.85;;
57565;SDS011;63999;43.882;-0.310;2022-10-31T17:06:39;4.50;;;2.72;;
57565;SDS011;63999;43.882;-0.310;2022-10-31T17:09:05;6.95;;;3.30;;
57565;SDS011;63999;43.882;-0.310;2022-10-31T17:11:31;11.63;;;2.92;;
57565;SDS011;63999;43.882;-0.310;2022-10-31T17:13:57;5.82;;;2.92;;
57565;SDS011;63999;43.882;-0.310;2022-10-31T17:16:23;7.25;;;2.90;;
57565;SDS011;63999;43.882;-0.310;2022-10-31T17:18:48;6.57;;;3.47;;
57565;SDS011;63999;43.882;-0.310;2022-10-31T17:21:21;8.48;;;3.45;;
57565;SDS011;63999;43.882;-0.310;2022-10-31T17:23:48;6.70;;;3.58;;
57565;SDS011;63999;43.882;-0.310;2022-10-31T17:26:14;6.57;;;3.88;;
57565;SDS011;63999;43.882;-0.310;2022-10-31T17:28:40;7.30;;;3.13;;
57565;SDS011;63999;43.882;-0.310;2022-10-31T17:31:09;12.45;;;4.70;;